createdAt,value
2023-04-21T00:01:39.487Z,14.85
2023-04-21T00:04:08.254Z,15.17
2023-04-21T00:06:36.632Z,14.90
2023-04-21T00:09:05.430Z,15.05
2023-04-21T00:11:33.169Z,15.40
2023-04-21T00:14:00.860Z,13.95
2023-04-21T00:16:28.663Z,14.30
2023-04-21T00:18:58.084Z,14.18
2023-04-21T00:21:25.776Z,14.13
2023-04-21T00:23:53.448Z,14.73
2023-04-21T00:26:21.332Z,14.70
2023-04-21T00:28:48.990Z,14.77
2023-04-21T00:31:16.785Z,15.20
2023-04-21T00:33:44.532Z,15.52
2023-04-21T00:36:13.622Z,16.08
2023-04-21T00:38:41.287Z,16.33
2023-04-21T00:41:08.958Z,16.67
2023-04-21T00:43:36.730Z,17.85
2023-04-21T00:46:04.876Z,19.05
2023-04-21T00:48:32.615Z,19.83
2023-04-21T00:51:00.422Z,20.08
2023-04-21T00:53:29.972Z,21.25
2023-04-21T00:55:57.733Z,22.63
2023-04-21T00:58:25.459Z,23.20
2023-04-21T01:00:53.304Z,23.60
2023-04-21T01:03:21.246Z,23.50
2023-04-21T01:05:48.976Z,24.90
2023-04-21T01:08:17.034Z,24.47
2023-04-21T01:10:46.158Z,24.53
2023-04-21T01:13:14.225Z,23.63
2023-04-21T01:15:42.012Z,25.30
2023-04-21T01:18:09.725Z,25.00
2023-04-21T01:20:39.023Z,26.70
2023-04-21T01:23:08.219Z,25.48
2023-04-21T01:25:36.058Z,25.50
2023-04-21T01:28:03.901Z,25.25
2023-04-21T01:30:31.488Z,25.60
2023-04-21T01:33:00.705Z,25.98
2023-04-21T01:35:28.457Z,25.27
2023-04-21T01:37:56.257Z,24.92
2023-04-21T01:40:25.406Z,24.27
2023-04-21T01:42:53.146Z,23.53
2023-04-21T01:45:20.959Z,24.15
2023-04-21T01:47:48.599Z,24.40
2023-04-21T01:50:16.485Z,23.90
2023-04-21T01:52:44.116Z,24.23
2023-04-21T01:55:11.813Z,23.27
2023-04-21T01:57:41.083Z,22.63
2023-04-21T02:00:10.323Z,22.17
2023-04-21T02:02:38.320Z,21.27
2023-04-21T02:05:07.010Z,23.10
2023-04-21T02:07:34.795Z,24.47
2023-04-21T02:10:03.032Z,24.77
2023-04-21T02:12:30.888Z,23.65
2023-04-21T02:14:59.828Z,23.87
2023-04-21T02:17:27.567Z,23.57
2023-04-21T02:19:55.259Z,24.10
2023-04-21T02:22:23.132Z,24.75
2023-04-21T02:24:50.946Z,24.80
2023-04-21T02:27:18.613Z,24.00
2023-04-21T02:29:46.410Z,23.80
2023-04-21T02:32:25.102Z,23.55
2023-04-21T02:34:53.928Z,22.88
2023-04-21T02:37:22.122Z,22.23
2023-04-21T02:39:49.843Z,20.17
2023-04-21T02:42:17.482Z,20.30
2023-04-21T02:44:45.150Z,20.00
2023-04-21T02:47:12.896Z,22.00
2023-04-21T02:49:45.253Z,21.70
2023-04-21T02:52:13.123Z,22.10
2023-04-21T02:54:40.947Z,22.33
2023-04-21T02:57:08.647Z,21.90
2023-04-21T02:59:36.289Z,21.65
2023-04-21T03:02:04.291Z,22.35
2023-04-21T03:04:33.941Z,22.55
2023-04-21T03:07:03.169Z,21.90
2023-04-21T03:09:30.829Z,22.92
2023-04-21T03:11:58.458Z,24.47
2023-04-21T03:14:26.192Z,28.88
2023-04-21T03:16:53.915Z,27.83
2023-04-21T03:19:21.730Z,27.33
2023-04-21T03:21:49.565Z,26.42
2023-04-21T03:24:19.407Z,27.98
2023-04-21T03:26:47.104Z,27.92
2023-04-21T03:29:15.087Z,31.88
2023-04-21T03:31:42.876Z,31.58
2023-04-21T03:34:10.649Z,28.02
2023-04-21T03:36:38.420Z,26.13
2023-04-21T03:39:20.409Z,25.60
2023-04-21T03:41:49.816Z,27.98
2023-04-21T03:44:17.789Z,27.02
2023-04-21T03:46:45.516Z,27.67
2023-04-21T03:49:13.421Z,29.98
2023-04-21T03:51:41.195Z,29.95
2023-04-21T03:54:09.168Z,29.88
2023-04-21T03:56:37.054Z,29.25
2023-04-21T03:59:06.526Z,31.38
2023-04-21T04:01:35.475Z,32.83
2023-04-21T04:04:03.471Z,33.33
2023-04-21T04:06:32.059Z,34.28
2023-04-21T04:09:03.267Z,33.10
2023-04-21T04:11:31.101Z,31.02
2023-04-21T04:13:58.907Z,29.90
2023-04-21T04:16:28.880Z,29.02
2023-04-21T04:18:56.904Z,29.88
2023-04-21T04:21:24.622Z,33.35
2023-04-21T04:23:53.530Z,31.67
2023-04-21T04:26:22.591Z,31.30
2023-04-21T04:28:50.630Z,31.52
2023-04-21T04:31:18.669Z,32.22
2023-04-21T04:33:47.952Z,32.25
2023-04-21T04:36:15.821Z,31.42
2023-04-21T04:38:43.557Z,32.35
2023-04-21T04:41:12.835Z,31.15
2023-04-21T04:43:40.545Z,31.75
2023-04-21T04:46:09.481Z,32.88
2023-04-21T04:48:37.280Z,31.25
2023-04-21T04:51:06.908Z,31.17
2023-04-21T04:53:34.647Z,31.30
2023-04-21T04:56:03.177Z,31.80
2023-04-21T04:58:30.829Z,31.83
2023-04-21T05:00:58.700Z,31.95
2023-04-21T05:03:26.667Z,31.80
2023-04-21T05:05:54.519Z,30.77
2023-04-21T05:08:23.624Z,30.63
2023-04-21T05:10:51.304Z,27.10
2023-04-21T05:13:19.034Z,28.27
2023-04-21T05:15:46.707Z,28.00
2023-04-21T05:18:14.495Z,29.13
2023-04-21T05:20:42.493Z,29.88
2023-04-21T05:23:10.241Z,32.20
2023-04-21T05:25:39.503Z,30.60
2023-04-21T05:28:07.356Z,32.00
2023-04-21T05:30:35.203Z,30.17
2023-04-21T05:33:02.866Z,31.00
2023-04-21T05:35:31.640Z,31.20
2023-04-21T05:37:59.327Z,31.20
2023-04-21T05:40:27.043Z,32.75
2023-04-21T05:42:56.142Z,32.35
2023-04-21T05:45:23.914Z,32.23
2023-04-21T05:47:51.690Z,30.98
2023-04-21T05:50:19.513Z,31.95
2023-04-21T05:52:47.293Z,31.42
2023-04-21T05:55:15.331Z,28.95
2023-04-21T05:57:43.257Z,30.40
2023-04-21T06:00:13.827Z,29.58
2023-04-21T06:02:41.866Z,29.38
2023-04-21T06:05:10.567Z,31.83
2023-04-21T06:07:38.350Z,30.20
2023-04-21T06:10:07.219Z,29.63
2023-04-21T06:12:35.043Z,30.08
2023-04-21T06:15:02.885Z,32.03
2023-04-21T06:17:32.162Z,32.95
2023-04-21T06:19:59.852Z,30.38
2023-04-21T06:22:29.266Z,31.52
2023-04-21T06:24:58.285Z,31.42
2023-04-21T06:27:26.319Z,31.13
2023-04-21T06:29:56.099Z,30.40
2023-04-21T06:32:23.852Z,29.58
2023-04-21T06:34:52.945Z,28.48
2023-04-21T06:37:20.614Z,28.55
2023-04-21T06:39:48.331Z,29.00
2023-04-21T06:42:16.136Z,28.00
2023-04-21T06:44:43.876Z,28.00
2023-04-21T06:47:11.744Z,30.50
2023-04-21T06:49:39.612Z,30.33
2023-04-21T06:52:09.073Z,31.58
2023-04-21T06:54:37.094Z,32.88
2023-04-21T06:57:05.353Z,32.87
2023-04-21T06:59:33.105Z,32.10
2023-04-21T07:02:01.264Z,29.23
2023-04-21T07:04:32.160Z,28.13
2023-04-21T07:07:02.938Z,29.30
2023-04-21T07:09:33.879Z,28.10
2023-04-21T07:12:02.905Z,28.57
2023-04-21T07:14:30.885Z,26.87
2023-04-21T07:16:58.731Z,23.38
2023-04-21T07:19:26.945Z,23.00
2023-04-21T07:21:54.707Z,23.27
2023-04-21T07:24:28.303Z,21.60
2023-04-21T07:26:57.602Z,21.15
2023-04-21T07:29:25.393Z,19.48
2023-04-21T07:31:54.657Z,19.02
2023-04-21T07:34:23.756Z,18.67
2023-04-21T07:36:53.084Z,19.73
2023-04-21T07:39:21.369Z,18.63
2023-04-21T07:41:49.758Z,18.90
2023-04-21T07:44:18.999Z,17.20
2023-04-21T07:46:46.732Z,16.17
2023-04-21T07:49:14.518Z,13.52
2023-04-21T07:51:42.273Z,13.65
2023-04-21T07:54:10.230Z,12.63
2023-04-21T07:56:38.083Z,13.25
2023-04-21T07:59:05.870Z,15.52
2023-04-21T08:01:35.030Z,13.75
2023-04-21T08:04:02.896Z,12.02
2023-04-21T08:06:33.441Z,10.70
2023-04-21T08:09:01.566Z,9.93
2023-04-21T08:11:29.494Z,10.00
2023-04-21T08:13:57.600Z,10.50
2023-04-21T08:16:25.447Z,10.77
2023-04-21T08:18:54.695Z,10.60
2023-04-21T08:21:22.375Z,10.00
2023-04-21T08:23:50.970Z,9.23
2023-04-21T08:26:18.906Z,8.48
2023-04-21T08:28:48.738Z,8.95
2023-04-21T08:31:16.590Z,8.65
2023-04-21T08:33:58.055Z,9.05
2023-04-21T08:36:32.016Z,9.10
2023-04-21T08:39:00.430Z,7.80
2023-04-21T08:41:28.430Z,8.00
2023-04-21T08:43:56.210Z,8.70
2023-04-21T08:46:25.480Z,8.43
2023-04-21T08:48:55.288Z,7.93
2023-04-21T08:51:24.766Z,7.70
2023-04-21T08:53:55.820Z,7.97
2023-04-21T08:56:25.664Z,8.50
2023-04-21T08:58:53.499Z,8.40
2023-04-21T09:01:21.250Z,8.27
2023-04-21T09:03:49.197Z,9.25
2023-04-21T09:06:17.795Z,9.10
2023-04-21T09:08:56.451Z,9.65
2023-04-21T09:11:24.465Z,9.23
2023-04-21T09:13:53.040Z,8.95
2023-04-21T09:16:22.872Z,8.82
2023-04-21T09:18:51.792Z,7.93
2023-04-21T09:21:23.156Z,8.33
2023-04-21T09:23:52.212Z,8.52
2023-04-21T09:26:24.008Z,10.07
2023-04-21T09:28:53.701Z,9.57
2023-04-21T09:31:25.301Z,8.80
2023-04-21T09:33:58.821Z,8.90
2023-04-21T09:36:29.564Z,8.10
2023-04-21T09:41:31.702Z,6.35
2023-04-21T09:44:01.476Z,7.47
2023-04-21T09:46:31.432Z,6.95
2023-04-21T09:49:02.648Z,6.53
2023-04-21T09:51:56.389Z,7.40
2023-04-21T09:54:29.828Z,6.82
2023-04-21T09:57:02.413Z,7.10
2023-04-21T09:59:33.536Z,6.30
2023-04-21T10:02:02.263Z,6.60
2023-04-21T10:04:32.271Z,6.22
2023-04-21T10:07:01.286Z,6.70
2023-04-21T10:09:34.382Z,6.00
2023-04-21T10:12:05.953Z,6.20
2023-04-21T10:14:36.268Z,6.93
2023-04-21T10:17:06.118Z,6.60
2023-04-21T10:19:40.067Z,6.88
2023-04-21T10:22:08.597Z,6.30
2023-04-21T10:24:39.190Z,7.40
2023-04-21T10:27:11.406Z,8.13
2023-04-21T10:29:54.707Z,7.30
2023-04-21T10:32:41.763Z,7.00
2023-04-21T10:35:14.776Z,7.88
2023-04-21T10:37:43.597Z,7.30
2023-04-21T10:40:44.298Z,7.90
2023-04-21T10:43:49.747Z,6.82
2023-04-21T10:46:34.097Z,7.15
2023-04-21T10:49:10.172Z,8.07
2023-04-21T10:52:05.793Z,7.93
2023-04-21T10:54:41.657Z,7.93
2023-04-21T10:57:12.069Z,8.45
2023-04-21T10:59:41.734Z,8.48
2023-04-21T11:02:12.179Z,8.37
2023-04-21T11:04:45.306Z,9.20
2023-04-21T11:07:14.801Z,8.65
2023-04-21T11:09:43.512Z,8.88
2023-04-21T11:12:13.927Z,9.05
2023-04-21T11:14:44.305Z,7.83
2023-04-21T11:17:13.375Z,8.05
2023-04-21T11:19:41.514Z,7.80
2023-04-21T11:22:09.289Z,8.63
2023-04-21T11:24:37.026Z,9.93
2023-04-21T11:27:05.334Z,9.40
2023-04-21T11:29:34.204Z,11.30
2023-04-21T11:32:03.310Z,11.52
2023-04-21T11:34:31.092Z,12.50
2023-04-21T11:36:58.872Z,12.07
2023-04-21T11:39:26.485Z,12.13
2023-04-21T11:41:54.491Z,12.57
2023-04-21T11:44:33.673Z,13.48
2023-04-21T11:47:01.771Z,13.48
2023-04-21T11:49:32.311Z,13.00
2023-04-21T11:52:00.175Z,13.10
2023-04-21T11:54:30.419Z,12.00
2023-04-21T11:56:59.144Z,11.70
2023-04-21T11:59:29.594Z,11.25
2023-04-21T12:01:57.265Z,10.07
2023-04-21T12:04:27.473Z,9.23
2023-04-21T12:07:01.458Z,9.63
2023-04-21T12:09:30.748Z,9.45
2023-04-21T12:11:59.909Z,8.95
2023-04-21T12:14:27.833Z,8.38
2023-04-21T12:16:57.407Z,9.57
2023-04-21T12:19:26.637Z,9.68
2023-04-21T12:21:56.143Z,10.07
2023-04-21T12:24:26.040Z,9.20
2023-04-21T12:26:53.795Z,9.55
2023-04-21T12:29:21.577Z,10.15
2023-04-21T12:31:49.304Z,11.05
2023-04-21T12:34:17.356Z,11.52
2023-04-21T12:36:45.586Z,11.00
2023-04-21T12:39:14.179Z,9.15
2023-04-21T12:41:43.287Z,9.23
2023-04-21T12:44:10.970Z,9.48
2023-04-21T12:46:38.751Z,9.55
2023-04-21T12:49:07.613Z,10.15
2023-04-21T12:51:35.480Z,9.90
2023-04-21T12:54:03.458Z,10.00
2023-04-21T12:56:31.413Z,10.38
2023-04-21T12:59:00.558Z,11.10
2023-04-21T13:01:28.398Z,10.80
2023-04-21T13:03:56.205Z,9.70
2023-04-21T13:06:24.142Z,8.73
2023-04-21T13:08:52.136Z,8.80
2023-04-21T13:11:20.049Z,9.90
2023-04-21T13:13:47.784Z,9.35
2023-04-21T13:16:17.273Z,9.63
2023-04-21T13:18:46.391Z,9.75
2023-04-21T13:21:14.266Z,9.80
2023-04-21T13:23:42.442Z,9.10
2023-04-21T13:26:10.500Z,8.70
2023-04-21T13:28:38.639Z,9.85
2023-04-21T13:31:07.174Z,9.27
2023-04-21T13:33:36.480Z,8.45
2023-04-21T13:36:04.663Z,8.43
2023-04-21T13:38:33.348Z,8.80
2023-04-21T13:41:01.220Z,8.38
2023-04-21T13:43:29.202Z,8.25
2023-04-21T13:45:58.823Z,9.82
2023-04-21T13:48:26.686Z,8.80
2023-04-21T13:50:55.901Z,9.60
2023-04-21T13:53:23.665Z,10.07
2023-04-21T13:55:52.829Z,9.70
2023-04-21T13:58:20.958Z,10.77
2023-04-21T14:00:48.716Z,9.98
2023-04-21T14:03:16.776Z,9.25
2023-04-21T14:05:44.842Z,9.50
2023-04-21T14:08:13.961Z,8.23
2023-04-21T14:10:41.739Z,7.07
2023-04-21T14:13:12.817Z,8.40
2023-04-21T14:15:45.369Z,9.30
2023-04-21T14:18:13.253Z,8.90
2023-04-21T14:20:40.987Z,6.88
2023-04-21T14:23:08.648Z,5.80
2023-04-21T14:25:37.973Z,6.32
2023-04-21T14:28:07.406Z,5.47
2023-04-21T14:30:36.180Z,8.50
2023-04-21T14:33:04.039Z,7.18
2023-04-21T14:35:32.036Z,8.23
2023-04-21T14:38:00.025Z,7.78
2023-04-21T14:40:27.787Z,7.38
2023-04-21T14:42:56.870Z,7.90
2023-04-21T14:45:24.803Z,7.53
2023-04-21T14:47:52.725Z,8.32
2023-04-21T14:50:20.696Z,7.65
2023-04-21T14:52:49.717Z,7.63
2023-04-21T14:55:17.909Z,6.95
2023-04-21T14:57:46.964Z,13.82
2023-04-21T15:00:16.981Z,8.38
2023-04-21T15:02:44.812Z,7.70
2023-04-21T15:05:12.818Z,7.00
2023-04-21T15:07:40.939Z,7.55
2023-04-21T15:10:11.203Z,6.95
2023-04-21T15:12:39.534Z,6.97
2023-04-21T15:15:08.486Z,6.90
2023-04-21T15:17:37.675Z,7.20
2023-04-21T15:20:06.611Z,6.03
2023-04-21T15:22:34.668Z,5.60
2023-04-21T15:25:02.493Z,5.30
2023-04-21T15:27:30.344Z,5.97
2023-04-21T15:29:58.424Z,5.22
2023-04-21T15:32:26.368Z,5.00
2023-04-21T15:34:55.570Z,4.82
2023-04-21T15:37:25.676Z,6.10
2023-04-21T15:39:53.841Z,5.10
2023-04-21T15:42:21.704Z,5.13
2023-04-21T15:44:49.553Z,4.78
2023-04-21T15:47:17.394Z,5.20
2023-04-21T15:49:45.408Z,6.30
2023-04-21T15:52:14.757Z,6.50
2023-04-21T15:54:42.560Z,8.75
2023-04-21T15:57:10.189Z,8.80
2023-04-21T15:59:37.983Z,7.80
2023-04-21T16:02:05.798Z,7.63
2023-04-21T16:04:33.868Z,7.70
2023-04-21T16:07:01.767Z,8.50
2023-04-21T16:09:30.887Z,7.70
2023-04-21T16:11:58.771Z,8.40
2023-04-21T16:14:26.505Z,8.35
2023-04-21T16:16:54.301Z,9.73
2023-04-21T16:19:22.039Z,12.18
2023-04-21T16:21:50.659Z,11.43
2023-04-21T16:24:18.582Z,11.35
2023-04-21T16:26:47.743Z,5.40
2023-04-21T16:29:15.441Z,5.50
2023-04-21T16:31:43.209Z,5.23
2023-04-21T16:34:13.714Z,3.92
2023-04-21T16:36:41.619Z,4.43
2023-04-21T16:39:09.354Z,3.38
2023-04-21T16:41:37.242Z,3.08
2023-04-21T16:44:06.341Z,1.35
2023-04-21T16:46:34.560Z,1.70
2023-04-21T16:49:02.423Z,2.00
2023-04-21T16:51:30.961Z,1.67
2023-04-21T16:53:58.724Z,1.50
2023-04-21T16:56:26.641Z,2.60
2023-04-21T16:58:54.651Z,2.25
2023-04-21T17:01:23.850Z,9.73
2023-04-21T17:03:51.711Z,11.45
2023-04-21T17:06:21.020Z,3.40
2023-04-21T17:08:49.281Z,3.70
2023-04-21T17:11:17.115Z,2.10
2023-04-21T17:13:44.974Z,2.15
2023-04-21T17:16:12.906Z,5.90
2023-04-21T17:18:42.280Z,6.50
2023-04-21T17:21:10.114Z,2.70
2023-04-21T17:23:37.883Z,5.13
2023-04-21T17:26:06.403Z,4.20
2023-04-21T17:28:34.172Z,2.97
2023-04-21T17:31:14.511Z,2.70
2023-04-21T17:33:44.690Z,3.05
2023-04-21T17:36:12.565Z,5.18
2023-04-21T17:38:41.800Z,2.30
2023-04-21T17:41:09.572Z,2.47
2023-04-21T17:43:37.660Z,2.70
2023-04-21T17:46:06.929Z,2.97
2023-04-21T17:48:35.128Z,3.22
2023-04-21T17:51:04.663Z,3.33
2023-04-21T17:53:32.626Z,2.80
2023-04-21T17:56:01.025Z,2.97
2023-04-21T17:58:29.523Z,3.08
2023-04-21T18:00:57.486Z,2.65
2023-04-21T18:03:25.684Z,2.58
2023-04-21T18:05:53.539Z,2.72
2023-04-21T18:08:22.749Z,2.47
2023-04-21T18:10:50.499Z,2.85
2023-04-21T18:13:18.813Z,2.58
2023-04-21T18:15:46.910Z,2.88
2023-04-21T18:18:14.719Z,3.80
2023-04-21T18:20:43.017Z,4.28
2023-04-21T18:23:11.347Z,3.55
2023-04-21T18:25:43.210Z,4.10
2023-04-21T18:28:12.549Z,3.90
2023-04-21T18:30:42.191Z,7.05
2023-04-21T18:33:10.997Z,3.80
2023-04-21T18:35:39.128Z,4.35
2023-04-21T18:38:08.293Z,3.97
2023-04-21T18:40:37.407Z,3.13
2023-04-21T18:43:06.684Z,3.17
2023-04-21T18:45:34.931Z,3.30
2023-04-21T18:48:03.001Z,3.10
2023-04-21T18:50:32.298Z,5.90
2023-04-21T18:52:59.987Z,5.30
2023-04-21T18:55:27.814Z,6.63
2023-04-21T18:57:55.668Z,3.97
2023-04-21T19:00:26.174Z,3.17
2023-04-21T19:02:54.361Z,7.95
2023-04-21T19:05:22.299Z,3.25
2023-04-21T19:07:50.074Z,3.25
2023-04-21T19:10:18.153Z,5.78
2023-04-21T19:12:45.945Z,4.93
2023-04-21T19:15:13.978Z,3.50
2023-04-21T19:17:43.237Z,3.20
2023-04-21T19:20:12.758Z,6.07
2023-04-21T19:22:40.602Z,5.00
2023-04-21T19:25:08.847Z,4.80
2023-04-21T19:27:37.021Z,3.50
2023-04-21T19:30:05.950Z,2.53
2023-04-21T19:32:34.062Z,2.67
2023-04-21T19:35:03.353Z,3.60
2023-04-21T19:37:34.424Z,3.83
2023-04-21T19:40:03.385Z,4.07
2023-04-21T19:42:31.333Z,7.28
2023-04-21T19:44:59.276Z,5.90
2023-04-21T19:47:27.317Z,6.20
2023-04-21T19:49:55.053Z,4.00
2023-04-21T19:52:24.120Z,3.90
2023-04-21T19:54:51.896Z,3.85
2023-04-21T19:57:19.685Z,3.65
2023-04-21T19:59:49.028Z,3.70
2023-04-21T20:02:17.077Z,3.70
2023-04-21T20:04:44.919Z,4.20
2023-04-21T20:07:12.618Z,4.53
2023-04-21T20:09:41.753Z,4.65
2023-04-21T20:12:09.723Z,4.93
2023-04-21T20:14:39.001Z,4.60
2023-04-21T20:17:06.759Z,4.60
2023-04-21T20:19:35.734Z,4.82
2023-04-21T20:22:03.799Z,3.80
2023-04-21T20:24:31.468Z,3.90
2023-04-21T20:27:00.505Z,4.30
2023-04-21T20:29:28.177Z,4.30
2023-04-21T20:31:57.406Z,4.10
2023-04-21T20:34:25.585Z,4.40
2023-04-21T20:36:54.856Z,5.20
2023-04-21T20:39:23.071Z,5.53
2023-04-21T20:42:00.993Z,5.03
2023-04-21T20:44:38.710Z,5.10
2023-04-21T20:47:08.178Z,7.88
2023-04-21T20:49:36.351Z,5.40
2023-04-21T20:52:04.089Z,4.65
2023-04-21T20:54:34.440Z,4.50
2023-04-21T20:57:02.645Z,4.25
2023-04-21T20:59:30.629Z,4.28
2023-04-21T21:01:59.754Z,4.30
2023-04-21T21:04:27.587Z,4.00
2023-04-21T21:06:56.045Z,4.20
2023-04-21T21:09:24.069Z,3.78
2023-04-21T21:11:51.794Z,3.80
2023-04-21T21:14:19.513Z,3.80
2023-04-21T21:16:47.307Z,3.78
2023-04-21T21:19:16.508Z,3.70
2023-04-21T21:21:44.214Z,3.50
2023-04-21T21:24:11.846Z,3.45
2023-04-21T21:26:42.498Z,4.00
2023-04-21T21:29:10.669Z,4.10
2023-04-21T21:31:38.870Z,4.00
2023-04-21T21:34:06.821Z,4.95
2023-04-21T21:36:36.125Z,3.72
2023-04-21T21:39:03.808Z,3.30
2023-04-21T21:41:31.530Z,3.00
2023-04-21T21:43:59.137Z,3.25
2023-04-21T21:46:26.891Z,3.63
2023-04-21T21:48:54.756Z,3.77
2023-04-21T21:51:22.397Z,3.42
2023-04-21T21:53:51.421Z,3.10
2023-04-21T21:56:19.149Z,3.10
2023-04-21T21:58:46.973Z,3.10
2023-04-21T22:01:18.053Z,3.20
2023-04-21T22:03:47.366Z,3.03
2023-04-21T22:06:17.170Z,3.00
2023-04-21T22:08:45.603Z,3.05
2023-04-21T22:11:14.758Z,2.85
2023-04-21T22:13:42.423Z,2.95
2023-04-21T22:16:10.303Z,3.10
2023-04-21T22:18:38.142Z,2.95
2023-04-21T22:21:06.296Z,3.00
2023-04-21T22:23:34.073Z,2.92
2023-04-21T22:26:01.865Z,3.25
2023-04-21T22:28:30.968Z,3.03
2023-04-21T22:30:58.783Z,3.10
2023-04-21T22:33:26.581Z,2.97
2023-04-21T22:35:54.256Z,2.88
2023-04-21T22:38:21.987Z,2.80
2023-04-21T22:40:49.932Z,2.77
2023-04-21T22:43:17.682Z,2.88
2023-04-21T22:45:46.774Z,2.70
2023-04-21T22:48:14.901Z,2.83
2023-04-21T22:50:44.766Z,2.60
2023-04-21T22:53:13.337Z,2.78
2023-04-21T22:55:41.095Z,2.53
2023-04-21T22:58:08.937Z,2.55
2023-04-21T23:00:36.771Z,2.60
2023-04-21T23:03:06.013Z,2.72
2023-04-21T23:05:33.809Z,2.65
2023-04-21T23:08:01.681Z,2.65
2023-04-21T23:10:30.231Z,2.73
2023-04-21T23:12:58.139Z,2.83
2023-04-21T23:15:27.151Z,2.88
2023-04-21T23:17:54.947Z,2.80
2023-04-21T23:20:24.011Z,3.00
2023-04-21T23:22:52.229Z,3.10
2023-04-21T23:25:20.195Z,3.20
2023-04-21T23:27:47.841Z,3.40
2023-04-21T23:30:15.789Z,3.53
2023-04-21T23:32:43.687Z,2.97
2023-04-21T23:35:11.513Z,2.70
2023-04-21T23:37:40.858Z,2.83
2023-04-21T23:40:11.238Z,2.80
2023-04-21T23:42:39.401Z,2.80
2023-04-21T23:45:08.751Z,2.93
2023-04-21T23:47:36.433Z,3.00
2023-04-21T23:50:04.579Z,2.90
2023-04-21T23:52:32.418Z,2.90
2023-04-21T23:55:01.404Z,3.00
2023-04-21T23:57:29.107Z,2.90
2023-04-21T23:59:56.758Z,2.97
